07:31
Airports
History
Links
Donate
Help keep this website running!
PayPal
Bitcoin
This page is community maintained. The information is intended for PC simulator navigation or reference.
Always use approved charts for navigation.
SNWP
Laginha
Laginha (SNWP)
Murici, Alagoas, Brazil (57820)
4
Lat/Lng:9° 18' 50" S / 36° 3' 23" W
-9.313889 / -36.056389
Elevation:262'ft / 80mMSL
ID / ICAO:SNWP
Runways:1
Longest:10-28
Grass 708m / 2,323ft
Nearby Weather07:00 GMT 2018-02-21
Nearby weather at SBMO, Zumbi Dos Palmares located 22.6 nautical miles from SNWP
Altimeter: 29.85
Visibility: 6.2 statute miles
Wind: 3 knots (from 340°)
Temp: 23°c / 73°f
Humidity: 94.1%

METAR: SBMO 210700Z 34003KT 9999 SCT020 23/22 Q1011

(Powered by phpweather)
Runway 10 / 28
Dimensions:708.1 x 29.9m 2323' x 98'ft
Surface:Grass
Runway 10 [A]Runway 28 [B]
Heading:077°TH 257°TH
Lat:
Lng:
9° 18' 52.53"S
36° 3' 34.21"W
9° 18' 47.47"S
36° 3' 11.79"W
User Notes and Comments
9° 18' 50" S / 36° 3' 23" W
Distance To
Airport ID:
Nearby Airports
4 Uruba 13.6 NM
SNWZ SSE 150°
4 Manduca Leao 22.2 NM
SNML SE 135°
(C) Zumbi Dos Palmares 22.6 NM
SBMO ( WX ) SE 127°
(U) Aeroclube de Alagoas 27.8 NM
SNGS SE 132°
4 Usina Porto Rico 35.6 NM
SNUP SSW 198°
4 Destilaria Sao Luiz 41.3 NM
SJZC NNE 26°
4 Senador Teotonio Vilela 42.6 NM
SNTW SSW 199°
VFR Chart
Flight Planning at SkyVector.com